Time;durP1;ratioP1;P1;durP2;ratioP2;P2;SDS_P1;SDS_P2;PMS_P1;PMS_P2;Temp;Humidity;BMP_temperature;BMP_pressure;BME280_temperature;BME280_humidity;BME280_pressure;Samples;Min_cycle;Max_cycle;Signal;HPM_P1;HPM_P2
2021/09/09 00:01:29;;;;;;;;;;;;;;;22.69;41.52;101497.03;4913122;29;19930;-63
2021/09/09 00:03:56;;;;;;;;;;;;;;;22.65;41.28;101501.84;4913264;29;20380;-63
2021/09/09 00:06:22;;;;;;;;;;;;;;;22.62;41.50;101503.97;4913271;29;20363;-63
2021/09/09 00:08:49;;;;;;;;;;;;;;;22.56;41.87;101502.72;4912780;29;19923;-63
2021/09/09 00:11:15;;;;;;;;;;;;;;;22.50;42.15;101501.47;4912462;29;19923;-63
2021/09/09 00:13:42;;;;;;;;;;;;;;;22.43;42.06;101499.53;4912820;29;20295;-63
2021/09/09 00:16:08;;;;;;;;;;;;;;;22.36;42.28;101499.25;4911800;29;19923;-63
2021/09/09 00:18:35;;;;;;;;;;;;;;;22.33;42.38;101504.88;4911957;29;19986;-63
2021/09/09 00:21:03;;;;;;;;;;;;;;;22.28;42.58;101500.00;4927214;29;19922;-64
2021/09/09 00:23:29;;;;;;;;;;;;;;;22.21;42.50;101500.69;4931172;29;19927;-62
2021/09/09 00:25:56;;;;;;;;;;;;;;;22.21;42.53;101500.69;4916122;29;19927;-63
2021/09/09 00:28:22;;;;;;;;;;;;;;;22.21;42.60;101500.69;4928719;29;20284;-62
2021/09/09 00:30:52;;;;;;;;;;;;;;;22.21;42.46;101506.91;4938053;29;20083;-63
2021/09/09 00:33:18;;;;;;;;;;;;;;;22.21;42.85;101504.22;4924112;29;19923;-62
2021/09/09 00:35:45;;;;;;;;;;;;;;;22.18;42.66;101510.72;4918832;29;20381;-63
2021/09/09 00:38:12;;;;;;;;;;;;;;;22.20;42.67;101513.22;4919468;29;19923;-63
2021/09/09 00:40:38;;;;;;;;;;;;;;;22.18;43.02;101505.34;4919280;29;20502;-63
2021/09/09 00:43:05;;;;;;;;;;;;;;;22.22;42.95;101511.25;4919146;29;19927;-63
2021/09/09 00:45:31;;;;;;;;;;;;;;;22.21;42.85;101500.69;4938411;29;19923;-62
2021/09/09 00:47:58;;;;;;;;;;;;;;;22.16;42.85;101507.31;4938108;29;20394;-63
2021/09/09 00:50:25;;;;;;;;;;;;;;;22.15;43.35;101508.31;4938170;29;19923;-62
2021/09/09 00:52:51;;;;;;;;;;;;;;;22.16;43.07;101503.81;4937287;29;19923;-62
2021/09/09 00:55:19;;;;;;;;;;;;;;;22.16;42.82;101512.66;4938010;29;19929;-62
2021/09/09 00:57:46;;;;;;;;;;;;;;;22.20;42.68;101504.38;4938032;29;19930;-62
2021/09/09 01:00:14;;;;;;;;;;;;;;;22.21;42.60;101501.56;4938032;29;19922;-62
2021/09/09 01:02:40;;;;;;;;;;;;;;;22.16;42.45;101501.97;4937982;29;19934;-63
2021/09/09 01:05:07;;;;;;;;;;;;;;;22.20;42.22;101497.19;4937988;29;19969;-62
2021/09/09 01:07:34;;;;;;;;;;;;;;;22.17;42.41;101501.00;4937945;29;19978;-63
2021/09/09 01:10:01;;;;;;;;;;;;;;;22.21;42.19;101500.69;4925774;29;19923;-63
2021/09/09 01:12:27;;;;;;;;;;;;;;;22.22;42.00;101503.25;4918869;29;19931;-63
2021/09/09 01:14:54;;;;;;;;;;;;;;;22.18;41.93;101512.50;4918580;29;19923;-63
2021/09/09 01:17:20;;;;;;;;;;;;;;;22.15;41.93;101500.28;4918758;29;19931;-63
2021/09/09 01:19:46;;;;;;;;;;;;;;;22.11;42.09;101496.22;4918760;29;19927;-63
2021/09/09 01:22:13;;;;;;;;;;;;;;;22.07;42.26;101499.31;4918479;29;19923;-62
2021/09/09 01:24:40;;;;;;;;;;;;;;;21.98;42.38;101501.88;4918432;29;20364;-63
2021/09/09 01:27:07;;;;;;;;;;;;;;;21.98;42.48;101501.06;4918470;29;19946;-63
2021/09/09 01:29:35;;;;;;;;;;;;;;;21.97;42.69;101510.88;4918465;29;19927;-62
2021/09/09 01:32:02;;;;;;;;;;;;;;;21.91;43.00;101503.44;4919634;29;20368;-63
2021/09/09 01:34:29;;;;;;;;;;;;;;;21.85;42.88;101498.66;4918443;29;19930;-63
2021/09/09 01:36:56;;;;;;;;;;;;;;;21.78;43.38;101498.38;4918312;29;19923;-63
2021/09/09 01:39:23;;;;;;;;;;;;;;;21.71;43.14;101496.44;4925430;29;19969;-62
2021/09/09 01:41:50;;;;;;;;;;;;;;;21.68;43.52;101494.88;4923864;29;19978;-63
2021/09/09 01:44:17;;;;;;;;;;;;;;;21.66;43.40;101503.03;4917037;29;19923;-62
2021/09/09 01:46:44;;;;;;;;;;;;;;;21.62;43.77;101504.31;4918040;29;19923;-62
2021/09/09 01:49:11;;;;;;;;;;;;;;;21.56;43.88;101498.66;4918233;29;20307;-63
2021/09/09 01:51:38;;;;;;;;;;;;;;;21.53;43.81;101497.09;4918970;29;19922;-62
2021/09/09 01:54:04;;;;;;;;;;;;;;;21.49;44.01;101498.38;4937024;29;20391;-62
2021/09/09 01:56:31;;;;;;;;;;;;;;;21.43;44.04;101502.44;4937044;29;19933;-63
2021/09/09 01:58:57;;;;;;;;;;;;;;;21.34;44.43;101500.59;4931321;29;19974;-63
2021/09/09 02:01:24;;;;;;;;;;;;;;;21.28;44.06;101503.81;4917921;29;19923;-62
2021/09/09 02:03:51;;;;;;;;;;;;;;;21.23;44.15;101496.25;4917783;29;19926;-63
2021/09/09 02:06:18;;;;;;;;;;;;;;;21.21;44.07;101493.69;4917725;29;19923;-63
2021/09/09 02:08:44;;;;;;;;;;;;;;;21.23;44.27;101498.06;4925926;29;19978;-63
2021/09/09 02:11:11;;;;;;;;;;;;;;;21.20;44.47;101502.72;4917835;29;19934;-62
2021/09/09 02:13:38;;;;;;;;;;;;;;;21.18;44.42;101503.81;4917855;29;19939;-63
2021/09/09 02:16:05;;;;;;;;;;;;;;;21.18;44.41;101499.31;4917017;29;19934;-63
2021/09/09 02:18:32;;;;;;;;;;;;;;;21.16;44.46;101495.94;4917528;29;20387;-63
2021/09/09 02:20:59;;;;;;;;;;;;;;;21.15;44.47;101494.28;4917491;29;20285;-63
2021/09/09 02:23:25;;;;;;;;;;;;;;;21.17;44.47;101492.28;4917393;29;20411;-62
2021/09/09 02:25:52;;;;;;;;;;;;;;;21.19;44.05;101498.34;4917334;29;20351;-62
2021/09/09 02:28:19;;;;;;;;;;;;;;;21.14;44.78;101495.25;4917568;29;20265;-63
2021/09/09 02:30:46;;;;;;;;;;;;;;;21.10;44.82;101493.81;4917366;29;19930;-62
2021/09/09 02:33:12;;;;;;;;;;;;;;;21.08;44.67;101487.78;4917263;29;19927;-62
2021/09/09 02:35:39;;;;;;;;;;;;;;;21.07;45.04;101485.25;4917230;29;19930;-63
2021/09/09 02:38:05;;;;;;;;;;;;;;;21.06;44.74;101486.25;4917370;29;19922;-63
2021/09/09 02:40:32;;;;;;;;;;;;;;;21.01;44.93;101482.16;4917249;29;19923;-62
2021/09/09 02:42:59;;;;;;;;;;;;;;;20.98;45.37;101484.25;4917006;29;20361;-63
2021/09/09 02:45:25;;;;;;;;;;;;;;;20.95;45.52;101476.50;4917301;29;20037;-62
2021/09/09 02:47:52;;;;;;;;;;;;;;;20.90;45.32;101478.75;4917047;29;19946;-63
2021/09/09 02:50:18;;;;;;;;;;;;;;;20.89;45.60;101488.59;4917043;29;20455;-63
2021/09/09 02:52:45;;;;;;;;;;;;;;;20.91;45.43;101483.94;4916071;29;19923;-63
2021/09/09 02:55:12;;;;;;;;;;;;;;;20.90;45.56;101486.75;4916964;29;19923;-63
2021/09/09 02:57:38;;;;;;;;;;;;;;;20.83;45.45;101475.78;4916844;29;20348;-62
2021/09/09 03:00:05;;;;;;;;;;;;;;;20.79;45.53;101479.72;4916829;29;19985;-62
2021/09/09 03:02:32;;;;;;;;;;;;;;;20.78;45.57;101478.03;4918178;29;19934;-62
2021/09/09 03:04:59;;;;;;;;;;;;;;;20.75;45.94;101471.13;4932543;29;19927;-62
2021/09/09 03:07:26;;;;;;;;;;;;;;;20.68;46.04;101468.16;4932482;29;19929;-63
2021/09/09 03:09:52;;;;;;;;;;;;;;;20.65;46.09;101465.72;4932592;29;19926;-63
2021/09/09 03:12:19;;;;;;;;;;;;;;;20.63;45.83;101467.72;4932582;29;19930;-62
2021/09/09 03:14:45;;;;;;;;;;;;;;;20.59;46.16;101468.94;4916269;29;19923;-63
2021/09/09 03:17:12;;;;;;;;;;;;;;;20.63;46.09;101459.72;4913293;29;20364;-63
2021/09/09 03:19:39;;;;;;;;;;;;;;;20.65;46.11;101460.41;4913357;29;19923;-63
2021/09/09 03:22:05;;;;;;;;;;;;;;;20.68;45.94;101464.63;4912890;29;19930;-63
2021/09/09 03:24:33;;;;;;;;;;;;;;;20.66;46.01;101464.75;4913688;29;19930;-63
2021/09/09 03:27:02;;;;;;;;;;;;;;;20.67;46.16;101454.94;4913573;29;20384;-63
2021/09/09 03:29:28;;;;;;;;;;;;;;;20.69;45.83;101453.81;4913237;29;19923;-62
2021/09/09 03:31:55;;;;;;;;;;;;;;;20.72;46.01;101455.38;4913327;29;19986;-63
2021/09/09 03:34:21;;;;;;;;;;;;;;;20.74;45.98;101452.63;4913643;29;19970;-63
2021/09/09 03:36:48;;;;;;;;;;;;;;;20.73;46.09;101453.59;4913130;29;19923;-63
2021/09/09 03:39:14;;;;;;;;;;;;;;;20.67;45.93;101447.78;4913343;29;19923;-63
2021/09/09 03:41:41;;;;;;;;;;;;;;;20.62;45.98;101444.69;4913025;29;19927;-63
2021/09/09 03:44:08;;;;;;;;;;;;;;;20.62;46.47;101443.81;4913166;29;20335;-62
2021/09/09 03:46:34;;;;;;;;;;;;;;;20.61;46.45;101443.00;4913307;29;19946;-63
2021/09/09 03:49:01;;;;;;;;;;;;;;;20.58;46.48;101443.25;4913261;29;19923;-63
2021/09/09 03:51:27;;;;;;;;;;;;;;;20.56;46.54;101443.38;4912902;29;19923;-63
2021/09/09 03:53:54;;;;;;;;;;;;;;;20.55;46.57;101448.88;4912908;29;19926;-62
2021/09/09 03:56:20;;;;;;;;;;;;;;;20.55;46.56;101440.88;4913078;29;20380;-63
2021/09/09 03:58:47;;;;;;;;;;;;;;;20.56;46.52;101442.56;4912895;29;20380;-63
2021/09/09 04:01:13;;;;;;;;;;;;;;;20.56;46.37;101439.88;4913291;29;19923;-62
2021/09/09 04:03:40;;;;;;;;;;;;;;;20.56;46.62;101437.22;4913250;29;19981;-63
2021/09/09 04:06:07;;;;;;;;;;;;;;;20.58;46.65;101439.75;4916699;29;20043;-63
2021/09/09 04:08:33;;;;;;;;;;;;;;;20.52;46.57;101436.66;4916584;29;19927;-62
2021/09/09 04:11:00;;;;;;;;;;;;;;;20.49;47.04;101442.25;4916643;29;19939;-63
2021/09/09 04:13:27;;;;;;;;;;;;;;;20.48;46.90;101435.22;4917090;29;20474;-63
2021/09/09 04:15:53;;;;;;;;;;;;;;;20.49;47.03;101439.59;4916845;29;19953;-63
2021/09/09 04:18:20;;;;;;;;;;;;;;;20.49;46.93;101436.94;4916369;29;20014;-62
2021/09/09 04:20:46;;;;;;;;;;;;;;;20.48;46.73;101439.72;4934293;29;19930;-63
2021/09/09 04:23:13;;;;;;;;;;;;;;;20.45;47.01;101445.31;4935050;29;19950;-62
2021/09/09 04:25:39;;;;;;;;;;;;;;;20.42;47.03;101443.78;4916525;29;19923;-62
2021/09/09 04:28:06;;;;;;;;;;;;;;;20.36;47.49;101450.47;4916217;29;19923;-62
2021/09/09 04:30:32;;;;;;;;;;;;;;;20.29;47.38;101460.00;4916480;29;19923;-63
2021/09/09 04:32:59;;;;;;;;;;;;;;;20.25;47.54;101461.22;4916141;29;19923;-63
2021/09/09 04:35:25;;;;;;;;;;;;;;;20.19;47.85;101459.94;4916254;29;19923;-62
2021/09/09 04:37:52;;;;;;;;;;;;;;;20.15;47.87;101462.97;4925816;29;19930;-62
2021/09/09 04:40:18;;;;;;;;;;;;;;;20.13;47.89;101463.13;4935408;29;19978;-62
2021/09/09 04:42:45;;;;;;;;;;;;;;;20.12;47.95;101457.94;4935267;29;19927;-63
2021/09/09 04:45:12;;;;;;;;;;;;;;;20.12;48.06;101463.25;4935032;29;19973;-63
2021/09/09 04:47:38;;;;;;;;;;;;;;;20.14;47.85;101464.00;4934898;29;19978;-63
2021/09/09 04:50:05;;;;;;;;;;;;;;;20.13;48.31;101465.78;4924294;29;19923;-63
2021/09/09 04:52:32;;;;;;;;;;;;;;;20.09;48.10;101458.19;4916072;29;19922;-63
2021/09/09 04:54:59;;;;;;;;;;;;;;;20.08;48.18;101461.84;4916031;29;19927;-63
2021/09/09 04:57:25;;;;;;;;;;;;;;;20.06;48.46;101456.63;4915623;29;20352;-62
2021/09/09 04:59:52;;;;;;;;;;;;;;;20.03;48.61;101452.41;4923240;29;19926;-63
2021/09/09 05:02:18;;;;;;;;;;;;;;;20.08;48.36;101453.84;4934968;29;20048;-63
2021/09/09 05:04:45;;;;;;;;;;;;;;;20.11;48.57;101453.56;4934429;29;19929;-63
2021/09/09 05:07:11;;;;;;;;;;;;;;;20.13;48.61;101449.81;4934852;29;19926;-63
2021/09/09 05:09:38;;;;;;;;;;;;;;;20.15;48.22;101455.00;4934453;29;20360;-63
2021/09/09 05:12:04;;;;;;;;;;;;;;;20.18;48.34;101449.41;4924619;29;20466;-62
2021/09/09 05:14:31;;;;;;;;;;;;;;;20.21;48.27;101447.34;4921609;29;19926;-62
2021/09/09 05:16:57;;;;;;;;;;;;;;;20.25;48.30;101445.22;4919313;29;19922;-62
2021/09/09 05:19:24;;;;;;;;;;;;;;;20.29;48.40;101449.34;4934287;29;20001;-63
2021/09/09 05:21:50;;;;;;;;;;;;;;;20.34;48.18;101457.78;4934094;29;19926;-63
2021/09/09 05:24:17;;;;;;;;;;;;;;;20.38;48.19;101463.69;4934538;29;19923;-62
2021/09/09 05:26:44;;;;;;;;;;;;;;;20.45;47.57;101448.81;4922738;29;19973;-63
2021/09/09 05:29:10;;;;;;;;;;;;;;;20.50;47.64;101462.59;4915501;29;19923;-63
2021/09/09 05:31:37;;;;;;;;;;;;;;;20.56;47.36;101453.22;4915177;29;19942;-63
2021/09/09 05:34:03;;;;;;;;;;;;;;;20.62;47.35;101460.69;4914883;29;19923;-63
2021/09/09 05:36:37;;;;;;;;;;;;;;;20.69;47.04;101466.31;4914984;29;19945;-62
2021/09/09 05:39:16;;;;;;;;;;;;;;;20.78;47.05;101459.34;4919428;29;19930;-62
2021/09/09 05:41:48;;;;;;;;;;;;;;;20.81;46.59;101467.94;4933756;29;20659;-62
2021/09/09 05:44:14;;;;;;;;;;;;;;;20.83;46.89;101465.13;4933982;29;20241;-63
2021/09/09 05:46:41;;;;;;;;;;;;;;;20.87;46.51;101471.88;4931628;29;19922;-63
2021/09/09 05:49:07;;;;;;;;;;;;;;;20.90;46.61;101478.75;4931512;29;19922;-63
2021/09/09 05:51:34;;;;;;;;;;;;;;;20.88;46.71;101478.91;4933947;29;20303;-63
2021/09/09 05:54:02;;;;;;;;;;;;;;;20.86;47.03;101489.72;4933093;29;19930;-63
2021/09/09 05:56:28;;;;;;;;;;;;;;;20.80;47.18;101481.41;4927604;29;20387;-63
2021/09/09 05:58:55;;;;;;;;;;;;;;;20.81;47.42;101480.41;4933276;29;19922;-63
2021/09/09 06:01:24;;;;;;;;;;;;;;;20.82;47.43;101482.09;4933665;29;19926;-63
2021/09/09 06:03:51;;;;;;;;;;;;;;;20.82;47.34;101487.44;4933531;29;19922;-63
2021/09/09 06:06:18;;;;;;;;;;;;;;;20.80;47.44;101482.25;4933607;29;19927;-64
2021/09/09 06:08:45;;;;;;;;;;;;;;;20.74;47.60;101488.13;4933376;29;19930;-64
2021/09/09 06:11:11;;;;;;;;;;;;;;;20.91;47.07;101489.28;4933554;29;19927;-62
2021/09/09 06:13:38;;;;;;;;;;;;;;;20.87;47.20;101491.41;4926524;29;19923;-61
2021/09/09 06:16:05;;;;;;;;;;;;;;;20.86;47.67;101487.03;4932903;29;19970;-63
2021/09/09 06:18:32;;;;;;;;;;;;;;;20.83;47.50;101486.47;4932944;29;20480;-63
2021/09/09 06:20:59;;;;;;;;;;;;;;;20.88;47.30;101485.06;4932993;29;19978;-61
2021/09/09 06:23:26;;;;;;;;;;;;;;;20.95;47.03;101490.72;4933031;29;19922;-63
2021/09/09 06:25:57;;;;;;;;;;;;;;;21.02;47.01;101493.66;4933086;29;19923;-62
2021/09/09 06:28:24;;;;;;;;;;;;;;;21.10;46.82;101498.31;4932771;29;19929;-63
2021/09/09 06:30:50;;;;;;;;;;;;;;;21.28;46.09;101493.13;4933193;29;19929;-63
2021/09/09 06:33:17;;;;;;;;;;;;;;;21.45;45.25;101486.28;4922115;29;20291;-63
2021/09/09 06:35:46;;;;;;;;;;;;;;;21.59;45.20;101485.06;4931713;29;20345;-62
2021/09/09 06:38:12;;;;;;;;;;;;;;;21.62;45.17;101485.63;4930157;29;19927;-61
2021/09/09 06:40:40;;;;;;;;;;;;;;;21.80;44.73;101490.22;4932272;29;19972;-63
2021/09/09 06:43:06;;;;;;;;;;;;;;;21.96;44.27;101481.63;4926578;29;19965;-62
2021/09/09 06:45:33;;;;;;;;;;;;;;;22.05;44.32;101488.78;4931188;29;19978;-62
2021/09/09 06:48:00;;;;;;;;;;;;;;;22.11;44.00;101490.03;4931970;29;19931;-62
2021/09/09 06:50:26;;;;;;;;;;;;;;;22.28;43.59;101488.44;4929458;29;20438;-62
2021/09/09 06:52:53;;;;;;;;;;;;;;;22.26;43.80;101491.25;4932196;29;20291;-64
2021/09/09 06:55:19;;;;;;;;;;;;;;;22.68;43.15;101487.34;4932481;29;19923;-60
2021/09/09 06:57:46;;;;;;;;;;;;;;;23.02;42.63;101488.53;4932258;29;19937;-60
2021/09/09 07:00:12;;;;;;;;;;;;;;;22.91;42.49;101485.09;4922970;29;19946;-61
2021/09/09 07:02:39;;;;;;;;;;;;;;;23.03;42.24;101480.34;4915701;29;19929;-61
2021/09/09 07:05:06;;;;;;;;;;;;;;;23.08;42.38;101483.41;4921735;29;20372;-61
2021/09/09 07:07:33;;;;;;;;;;;;;;;23.11;42.11;101479.63;4913273;29;20373;-61
2021/09/09 07:09:59;;;;;;;;;;;;;;;23.29;41.95;101475.13;4913181;29;20136;-62
2021/09/09 07:12:26;;;;;;;;;;;;;;;23.27;41.92;101485.19;4928134;29;19929;-61
2021/09/09 07:14:52;;;;;;;;;;;;;;;23.50;41.67;101491.91;4932276;29;20322;-61
2021/09/09 07:17:19;;;;;;;;;;;;;;;23.62;41.24;101485.31;4931923;29;19970;-61
2021/09/09 07:19:45;;;;;;;;;;;;;;;23.76;41.02;101483.91;4931602;29;19923;-61
2021/09/09 07:22:12;;;;;;;;;;;;;;;23.90;40.57;101487.88;4925496;29;19934;-62
2021/09/09 07:24:43;;;;;;;;;;;;;;;24.06;40.27;101485.34;4912960;29;19923;-64
2021/09/09 07:27:10;;;;;;;;;;;;;;;24.09;39.84;101485.00;4912809;29;19923;-61
2021/09/09 07:29:36;;;;;;;;;;;;;;;24.29;39.27;101477.59;4912825;29;19934;-60
2021/09/09 07:32:03;;;;;;;;;;;;;;;24.44;38.92;101475.16;4930643;29;19926;-61
2021/09/09 07:34:30;;;;;;;;;;;;;;;24.58;38.43;101481.75;4931657;29;19934;-62
2021/09/09 07:36:56;;;;;;;;;;;;;;;24.72;37.90;101482.16;4931966;29;19923;-63
2021/09/09 07:39:23;;;;;;;;;;;;;;;24.78;37.64;101473.44;4932406;29;20390;-63
2021/09/09 07:41:49;;;;;;;;;;;;;;;24.87;37.37;101477.84;4935683;29;19926;-63
2021/09/09 07:44:16;;;;;;;;;;;;;;;25.00;36.80;101480.06;4935496;29;19947;-64
2021/09/09 07:46:42;;;;;;;;;;;;;;;25.10;36.57;101478.06;4933913;29;20375;-63
2021/09/09 07:49:09;;;;;;;;;;;;;;;25.22;36.31;101478.59;4916629;29;20403;-63
2021/09/09 07:51:36;;;;;;;;;;;;;;;25.28;36.26;101474.41;4916432;29;20388;-63
2021/09/09 07:54:02;;;;;;;;;;;;;;;25.46;35.93;101468.91;4916313;29;19934;-63
2021/09/09 07:56:30;;;;;;;;;;;;;;;25.59;35.66;101466.53;4916620;29;20458;-63
2021/09/09 07:58:56;;;;;;;;;;;;;;;25.74;35.43;101464.03;4916392;29;19970;-63
2021/09/09 08:01:23;;;;;;;;;;;;;;;25.78;35.15;101466.38;4916179;29;19923;-64
2021/09/09 08:03:50;;;;;;;;;;;;;;;25.93;34.84;101467.38;4922338;29;19978;-64
2021/09/09 08:06:16;;;;;;;;;;;;;;;26.11;34.50;101463.66;4916749;29;19978;-65
2021/09/09 08:08:43;;;;;;;;;;;;;;;26.23;34.29;101465.81;4916170;29;19929;-64
2021/09/09 08:11:09;;;;;;;;;;;;;;;26.29;33.78;101463.44;4925231;29;19929;-63
2021/09/09 08:13:37;;;;;;;;;;;;;;;26.50;33.47;101466.38;4934954;29;19937;-63
2021/09/09 08:16:04;;;;;;;;;;;;;;;26.63;33.15;101470.38;4934965;29;19926;-63
2021/09/09 08:18:30;;;;;;;;;;;;;;;26.76;32.66;101473.34;4926292;29;19923;-63
2021/09/09 08:20:57;;;;;;;;;;;;;;;26.84;32.44;101469.78;4916210;29;19931;-61
2021/09/09 08:23:24;;;;;;;;;;;;;;;26.95;31.88;101473.94;4926149;29;19923;-62
2021/09/09 08:25:51;;;;;;;;;;;;;;;27.02;31.66;101469.50;4932357;29;19926;-62
2021/09/09 08:28:17;;;;;;;;;;;;;;;27.17;31.54;101472.25;4930973;29;20307;-63
2021/09/09 08:30:44;;;;;;;;;;;;;;;27.28;31.11;101468.31;4934239;29;19927;-62
2021/09/09 08:33:11;;;;;;;;;;;;;;;27.37;31.14;101465.38;4931647;29;20439;-62
2021/09/09 08:35:41;;;;;;;;;;;;;;;27.52;30.87;101465.44;4931972;29;19933;-62
2021/09/09 08:38:07;;;;;;;;;;;;;;;27.63;30.71;101456.09;4934328;29;19930;-62
2021/09/09 08:40:36;;;;;;;;;;;;;;;27.74;30.49;101456.66;4934376;29;20367;-62
2021/09/09 08:43:03;;;;;;;;;;;;;;;27.89;30.36;101456.69;4933812;29;20335;-63
2021/09/09 08:45:30;;;;;;;;;;;;;;;28.00;30.12;101462.47;4933961;29;19990;-62
2021/09/09 08:48:00;;;;;;;;;;;;;;;28.14;29.71;101457.31;4933918;29;19926;-62
2021/09/09 08:50:26;;;;;;;;;;;;;;;28.19;29.79;101452.19;4933925;29;19930;-62
2021/09/09 08:52:54;;;;;;;;;;;;;;;28.39;29.57;101457.84;4933760;29;19923;-63
2021/09/09 08:55:21;;;;;;;;;;;;;;;28.50;29.36;101460.03;4933938;29;19927;-63
2021/09/09 08:57:47;;;;;;;;;;;;;;;28.62;29.06;101454.16;4932750;29;19923;-62
2021/09/09 09:00:14;;;;;;;;;;;;;;;28.79;28.73;101452.13;4932813;29;19927;-62
2021/09/09 09:02:47;;;;;;;;;;;;;;;28.96;28.62;101458.09;4933942;29;19926;-62
2021/09/09 09:05:14;;;;;;;;;;;;;;;29.12;28.33;101454.34;4931956;29;20387;-62
2021/09/09 09:07:41;;;;;;;;;;;;;;;29.15;28.23;101446.69;4933384;29;19929;-62
2021/09/09 09:10:08;;;;;;;;;;;;;;;29.31;27.71;101445.59;4934336;29;19931;-63
2021/09/09 09:12:40;;;;;;;;;;;;;;;29.47;27.81;101443.63;4934209;29;19978;-62
2021/09/09 09:15:21;;;;;;;;;;;;;;;29.63;27.44;101439.81;4933770;29;19929;-61
2021/09/09 09:18:08;;;;;;;;;;;;;;;29.77;27.29;101438.88;4934131;29;19926;-62
2021/09/09 09:20:39;;;;;;;;;;;;;;;29.94;26.91;101439.44;4934121;29;19923;-62
2021/09/09 09:23:09;;;;;;;;;;;;;;;29.99;26.66;101436.13;4933709;29;19930;-62
2021/09/09 09:25:44;;;;;;;;;;;;;;;30.25;26.42;101427.31;4934176;29;19927;-62
2021/09/09 09:28:10;;;;;;;;;;;;;;;30.36;25.84;101433.19;4934107;29;19934;-62
2021/09/09 09:30:37;;;;;;;;;;;;;;;30.44;25.58;101425.72;4925556;29;19923;-61
2021/09/09 09:33:04;;;;;;;;;;;;;;;30.64;25.33;101429.56;4914887;29;19934;-62
2021/09/09 09:35:30;;;;;;;;;;;;;;;30.78;24.78;101417.75;4932042;29;20395;-62
2021/09/09 09:37:59;;;;;;;;;;;;;;;30.97;24.71;101415.25;4933437;29;19923;-62
2021/09/09 09:40:27;;;;;;;;;;;;;;;31.14;24.40;101413.84;4933831;29;20488;-62
2021/09/09 09:42:56;;;;;;;;;;;;;;;31.28;24.15;101414.69;4933493;29;19933;-62
2021/09/09 09:45:22;;;;;;;;;;;;;;;31.42;23.92;101416.34;4933294;29;19942;-62
2021/09/09 09:47:49;;;;;;;;;;;;;;;31.47;23.50;101412.19;4917033;29;20281;-62
2021/09/09 09:50:17;;;;;;;;;;;;;;;31.63;23.53;101403.63;4914619;29;19930;-62
2021/09/09 09:52:44;;;;;;;;;;;;;;;31.65;23.36;101398.81;4915623;29;19931;-62
2021/09/09 09:55:11;;;;;;;;;;;;;;;31.78;22.80;101394.41;4933265;29;20376;-62
2021/09/09 09:57:51;;;;;;;;;;;;;;;31.97;23.01;101387.25;4932613;29;19927;-63
2021/09/09 10:00:17;;;;;;;;;;;;;;;32.07;22.74;101391.19;4932759;29;19927;-62
2021/09/09 10:02:44;;;;;;;;;;;;;;;32.11;22.38;101388.84;4931627;29;20007;-61
2021/09/09 10:05:12;;;;;;;;;;;;;;;32.21;22.05;101383.88;4932589;29;19985;-62
2021/09/09 10:07:39;;;;;;;;;;;;;;;32.33;21.87;101383.16;4932982;29;19973;-62
2021/09/09 10:10:06;;;;;;;;;;;;;;;32.37;21.64;101382.50;4929524;29;20467;-62
2021/09/09 10:12:33;;;;;;;;;;;;;;;32.45;21.88;101381.41;4919764;29;19926;-61
2021/09/09 10:15:01;;;;;;;;;;;;;;;32.69;21.26;101379.00;4914041;29;20709;-61
2021/09/09 10:17:28;;;;;;;;;;;;;;;32.75;21.48;101377.28;4913873;29;19973;-60
2021/09/09 10:19:54;;;;;;;;;;;;;;;32.97;21.24;101372.34;4914075;29;19923;-60
2021/09/09 10:22:22;;;;;;;;;;;;;;;32.93;20.95;101366.50;4928411;29;19923;-61
2021/09/09 10:24:50;;;;;;;;;;;;;;;33.13;21.07;101370.94;4932764;29;19933;-60
2021/09/09 10:27:27;;;;;;;;;;;;;;;33.30;20.49;101369.34;4932720;29;19923;-60
2021/09/09 10:30:00;;;;;;;;;;;;;;;33.45;20.84;101368.19;4932576;29;19931;-61
2021/09/09 10:32:29;;;;;;;;;;;;;;;33.63;20.38;101368.19;4932304;29;19927;-61
2021/09/09 10:35:18;;;;;;;;;;;;;;;33.69;20.75;101358.28;4913737;29;19923;-61
2021/09/09 10:37:53;;;;;;;;;;;;;;;33.63;20.70;101353.75;4913804;29;19934;-63
2021/09/09 10:40:32;;;;;;;;;;;;;;;33.69;20.73;101356.38;4925113;29;19934;-61
2021/09/09 10:42:58;;;;;;;;;;;;;;;33.79;20.52;101355.00;4931841;29;20387;-64
2021/09/09 10:45:34;;;;;;;;;;;;;;;33.90;20.50;101350.75;4931981;29;19933;-60
2021/09/09 10:48:05;;;;;;;;;;;;;;;34.04;20.37;101345.97;4931891;29;19930;-60
2021/09/09 10:50:32;;;;;;;;;;;;;;;34.13;20.05;101342.69;4918344;29;19978;-60
2021/09/09 10:53:05;;;;;;;;;;;;;;;34.29;19.63;101340.38;4931881;29;19931;-61
2021/09/09 10:55:33;;;;;;;;;;;;;;;34.32;19.99;101340.75;4932041;29;19945;-61
2021/09/09 10:58:20;;;;;;;;;;;;;;;34.18;19.90;101333.81;4931766;29;19926;-62
2021/09/09 11:01:01;;;;;;;;;;;;;;;34.42;19.52;101331.22;4921345;29;20023;-63
2021/09/09 11:03:40;;;;;;;;;;;;;;;34.55;19.33;101331.03;4924209;29;19973;-62
2021/09/09 11:06:09;;;;;;;;;;;;;;;34.70;19.36;101325.09;4930431;29;20348;-64
2021/09/09 11:08:36;;;;;;;;;;;;;;;34.75;19.04;101313.50;4923838;29;19948;-63
2021/09/09 11:11:04;;;;;;;;;;;;;;;34.85;19.17;101311.06;4931234;29;19939;-62
2021/09/09 11:13:32;;;;;;;;;;;;;;;34.81;19.34;101316.13;4931087;29;19930;-64
2021/09/09 11:15:59;;;;;;;;;;;;;;;34.81;19.44;101315.28;4931327;29;19930;-63
2021/09/09 11:18:29;;;;;;;;;;;;;;;34.80;19.74;101317.16;4932076;29;20295;-64
2021/09/09 11:21:00;;;;;;;;;;;;;;;34.72;19.36;101306.63;4931657;29;19934;-63
2021/09/09 11:23:26;;;;;;;;;;;;;;;34.85;19.25;101305.59;4931800;29;20016;-68
2021/09/09 11:25:53;;;;;;;;;;;;;;;34.67;19.39;101307.31;4931816;29;19934;-64
2021/09/09 11:28:20;;;;;;;;;;;;;;;34.85;19.17;101300.16;4932087;29;20308;-65
2021/09/09 11:31:03;;;;;;;;;;;;;;;35.03;19.28;101301.91;4930976;29;20395;-66
2021/09/09 11:33:30;;;;;;;;;;;;;;;35.24;19.36;101286.03;4912623;29;19931;-63
2021/09/09 11:36:01;;;;;;;;;;;;;;;35.01;19.26;101305.97;4912444;29;19927;-63
2021/09/09 11:38:31;;;;;;;;;;;;;;;35.14;19.22;101292.91;4912481;29;19930;-63
2021/09/09 11:41:06;;;;;;;;;;;;;;;34.95;19.29;101297.66;4912641;29;19931;-64
2021/09/09 11:43:33;;;;;;;;;;;;;;;34.92;19.58;101298.16;4911528;29;19926;-63
2021/09/09 11:46:00;;;;;;;;;;;;;;;34.91;19.23;101299.22;4912593;29;19926;-64
2021/09/09 11:48:27;;;;;;;;;;;;;;;35.02;19.02;101292.09;4912607;29;19927;-63
2021/09/09 11:50:53;;;;;;;;;;;;;;;35.16;19.06;101284.50;4911747;29;19931;-64
2021/09/09 11:53:26;;;;;;;;;;;;;;;35.26;19.17;101286.59;4912662;29;20376;-63
2021/09/09 11:55:54;;;;;;;;;;;;;;;35.42;19.06;101283.16;4912671;29;20315;-64
2021/09/09 11:58:34;;;;;;;;;;;;;;;35.44;18.86;101285.66;4912690;29;19927;-63
2021/09/09 12:01:02;;;;;;;;;;;;;;;35.44;18.76;101281.03;4912479;29;19923;-64
2021/09/09 12:03:30;;;;;;;;;;;;;;;35.36;18.93;101272.41;4912585;29;20303;-63
2021/09/09 12:05:58;;;;;;;;;;;;;;;35.38;18.99;101268.34;4927022;29;20034;-63
2021/09/09 12:08:25;;;;;;;;;;;;;;;35.42;18.82;101266.78;4930884;29;19923;-63
2021/09/09 12:11:05;;;;;;;;;;;;;;;35.31;18.63;101263.00;4930040;29;19922;-65
2021/09/09 12:13:33;;;;;;;;;;;;;;;35.42;18.79;101252.34;4925462;29;19926;-64
2021/09/09 12:16:14;;;;;;;;;;;;;;;35.50;18.31;101257.41;4922569;29;19986;-64
2021/09/09 12:18:42;;;;;;;;;;;;;;;35.52;18.24;101254.44;4929328;29;19933;-64
2021/09/09 12:21:10;;;;;;;;;;;;;;;35.44;18.56;101252.91;4930559;29;19931;-65
2021/09/09 12:23:37;;;;;;;;;;;;;;;35.48;18.40;101254.09;4928165;29;20288;-65
2021/09/09 12:26:15;;;;;;;;;;;;;;;35.58;18.05;101243.38;4933420;29;19926;-65
2021/09/09 12:28:41;;;;;;;;;;;;;;;35.66;17.98;101242.16;4934752;29;20399;-63
2021/09/09 12:31:09;;;;;;;;;;;;;;;35.67;17.95;101240.25;4934879;29;19929;-63
2021/09/09 12:33:38;;;;;;;;;;;;;;;35.75;18.03;101232.50;4934550;29;19937;-63
2021/09/09 12:36:16;;;;;;;;;;;;;;;35.82;18.07;101231.53;4928950;29;19923;-64
2021/09/09 12:38:44;;;;;;;;;;;;;;;35.84;18.18;101221.19;4934217;29;19923;-63